createdAt,value
2022-11-14T00:01:26.357Z,4.80
2022-11-14T00:05:47.895Z,5.03
2022-11-14T00:10:08.938Z,4.78
2022-11-14T00:14:29.561Z,4.10
2022-11-14T00:18:51.603Z,4.38
2022-11-14T00:23:11.948Z,4.95
2022-11-14T00:27:32.761Z,4.85
2022-11-14T00:31:53.541Z,5.00
2022-11-14T00:36:14.444Z,4.70
2022-11-14T00:40:34.920Z,4.75
2022-11-14T00:44:55.689Z,5.13
2022-11-14T00:49:16.385Z,5.53
2022-11-14T00:53:38.346Z,5.13
2022-11-14T00:58:00.151Z,5.18
2022-11-14T01:02:20.814Z,4.57
2022-11-14T01:06:42.038Z,4.50
2022-11-14T01:11:10.041Z,5.15
2022-11-14T01:15:30.901Z,4.75
2022-11-14T01:19:52.153Z,4.70
2022-11-14T01:24:13.144Z,4.53
2022-11-14T01:28:34.086Z,4.22
2022-11-14T01:32:55.008Z,4.60
2022-11-14T01:37:15.452Z,4.10
2022-11-14T01:41:35.981Z,4.45
2022-11-14T01:45:56.450Z,4.18
2022-11-14T01:50:17.344Z,4.07
2022-11-14T01:54:41.459Z,5.07
2022-11-14T01:59:07.472Z,4.73
2022-11-14T02:03:28.117Z,4.18
2022-11-14T02:07:48.825Z,4.30
2022-11-14T02:12:12.204Z,4.53
2022-11-14T02:16:32.783Z,4.43
2022-11-14T02:20:53.345Z,5.03
2022-11-14T02:25:17.375Z,4.80
2022-11-14T02:29:38.739Z,4.78
2022-11-14T02:33:59.216Z,3.70
2022-11-14T02:38:19.932Z,3.72
2022-11-14T02:42:41.302Z,4.18
2022-11-14T02:47:02.077Z,3.60
2022-11-14T02:51:22.491Z,3.80
2022-11-14T02:55:42.988Z,3.45
2022-11-14T03:00:06.767Z,3.20
2022-11-14T03:04:30.920Z,3.40
2022-11-14T03:08:51.511Z,3.35
2022-11-14T03:13:13.479Z,3.58
2022-11-14T03:17:36.132Z,3.10
2022-11-14T03:21:56.610Z,3.08
2022-11-14T03:26:17.153Z,2.70
2022-11-14T03:30:37.603Z,2.95
2022-11-14T03:34:58.940Z,2.83
2022-11-14T03:39:19.346Z,3.03
2022-11-14T03:43:39.851Z,2.72
2022-11-14T03:48:00.610Z,2.63
2022-11-14T03:52:21.226Z,2.67
2022-11-14T03:56:41.964Z,2.70
2022-11-14T04:01:03.912Z,3.20
2022-11-14T04:05:24.645Z,2.30
2022-11-14T04:09:47.361Z,2.65
2022-11-14T04:14:08.215Z,2.85
2022-11-14T04:18:29.680Z,2.83
2022-11-14T04:22:50.625Z,2.67
2022-11-14T04:27:11.631Z,2.83
2022-11-14T04:31:31.998Z,3.10
2022-11-14T04:35:52.936Z,3.40
2022-11-14T04:40:13.668Z,2.95
2022-11-14T04:44:34.150Z,3.03
2022-11-14T04:48:54.817Z,2.65
2022-11-14T04:53:15.622Z,3.05
2022-11-14T04:57:36.445Z,2.78
2022-11-14T05:01:57.295Z,3.10
2022-11-14T05:06:17.539Z,3.03
2022-11-14T05:10:38.399Z,3.42
2022-11-14T05:15:01.121Z,3.55
2022-11-14T05:19:21.628Z,3.15
2022-11-14T05:23:42.235Z,2.85
2022-11-14T05:28:02.957Z,3.20
2022-11-14T05:32:23.609Z,2.97
2022-11-14T05:36:44.045Z,3.45
2022-11-14T05:41:16.963Z,3.50
2022-11-14T05:45:37.584Z,3.97
2022-11-14T05:49:58.246Z,3.08
2022-11-14T05:54:19.173Z,3.25
2022-11-14T05:58:40.263Z,2.97
2022-11-14T06:03:00.884Z,3.42
2022-11-14T06:07:21.847Z,3.17
2022-11-14T06:11:42.228Z,2.58
2022-11-14T06:16:10.241Z,3.50
2022-11-14T06:20:30.659Z,3.22
2022-11-14T06:24:51.251Z,3.28
2022-11-14T06:29:12.125Z,3.15
2022-11-14T06:33:35.623Z,3.28
2022-11-14T06:37:56.413Z,3.38
2022-11-14T06:42:17.667Z,3.22
2022-11-14T06:46:38.531Z,3.30
2022-11-14T06:50:59.712Z,3.03
2022-11-14T06:55:25.161Z,3.33
2022-11-14T06:59:45.845Z,2.75
2022-11-14T07:04:06.697Z,2.90
2022-11-14T07:08:27.317Z,4.35
2022-11-14T07:12:48.029Z,3.90
2022-11-14T07:17:08.741Z,3.60
2022-11-14T07:21:30.994Z,4.10
2022-11-14T07:25:51.822Z,3.70
2022-11-14T07:30:12.830Z,3.97
2022-11-14T07:34:33.490Z,3.92
2022-11-14T07:38:54.649Z,4.15
2022-11-14T07:43:15.029Z,4.30
2022-11-14T07:47:35.896Z,3.17
2022-11-14T07:51:56.397Z,3.35
2022-11-14T07:56:17.347Z,3.35
2022-11-14T08:00:38.284Z,3.38
2022-11-14T08:04:58.939Z,3.53
2022-11-14T08:09:19.694Z,3.63
2022-11-14T08:13:40.497Z,5.30
2022-11-14T08:18:02.479Z,8.98
2022-11-14T08:22:22.947Z,4.70
2022-11-14T08:26:43.827Z,3.97
2022-11-14T08:31:05.060Z,3.58
2022-11-14T08:35:25.375Z,2.88
2022-11-14T08:39:46.434Z,2.28
2022-11-14T08:44:07.413Z,2.60
2022-11-14T08:48:28.832Z,2.90
2022-11-14T08:52:53.321Z,2.55
2022-11-14T08:57:15.741Z,3.00
2022-11-14T09:01:36.582Z,2.90
2022-11-14T09:05:57.291Z,3.40
2022-11-14T09:10:18.328Z,4.43
2022-11-14T09:14:46.462Z,3.03
2022-11-14T09:19:06.915Z,4.25
2022-11-14T09:23:28.284Z,3.30
2022-11-14T09:27:51.006Z,2.83
2022-11-14T09:32:11.814Z,3.55
2022-11-14T09:36:32.421Z,4.22
2022-11-14T09:41:08.759Z,4.38
2022-11-14T09:45:30.597Z,5.25
2022-11-14T09:49:56.376Z,4.65
2022-11-14T09:54:39.385Z,5.55
2022-11-14T09:59:02.969Z,5.50
2022-11-14T10:03:36.888Z,4.68
2022-11-14T10:08:02.729Z,4.45
2022-11-14T10:13:02.531Z,3.57
2022-11-14T10:27:05.391Z,5.30
2022-11-14T10:32:27.880Z,5.43
2022-11-14T10:37:15.427Z,3.97
2022-11-14T10:46:27.994Z,2.55
2022-11-14T10:50:57.379Z,2.95
2022-11-14T10:55:43.494Z,2.47
2022-11-14T11:00:17.344Z,1.98
2022-11-14T11:04:41.832Z,1.67
2022-11-14T11:09:30.646Z,0.65
2022-11-14T11:14:00.818Z,0.77
2022-11-14T11:18:31.185Z,0.90
2022-11-14T11:23:12.289Z,1.00
2022-11-14T11:27:34.608Z,0.63
2022-11-14T11:31:58.622Z,0.68
2022-11-14T11:36:24.865Z,0.90
2022-11-14T11:40:55.895Z,1.15
2022-11-14T11:45:20.243Z,0.90
2022-11-14T11:49:53.936Z,1.13
2022-11-14T11:54:22.428Z,1.10
2022-11-14T11:58:55.765Z,1.02
2022-11-14T12:03:20.248Z,5.70
2022-11-14T12:08:04.817Z,0.82
2022-11-14T12:12:44.450Z,2.67
2022-11-14T12:17:20.652Z,2.47
2022-11-14T12:21:59.436Z,3.30
2022-11-14T12:26:45.422Z,2.92
2022-11-14T12:31:13.433Z,3.10
2022-11-14T12:35:38.074Z,3.33
2022-11-14T12:40:05.181Z,3.42
2022-11-14T12:44:29.129Z,2.78
2022-11-14T12:48:50.753Z,2.67
2022-11-14T12:53:39.610Z,2.20
2022-11-14T12:58:27.946Z,1.98
2022-11-14T13:03:19.260Z,1.70
2022-11-14T13:07:51.889Z,1.25
2022-11-14T13:12:51.967Z,1.50
2022-11-14T13:17:37.006Z,8.00
2022-11-14T13:22:13.177Z,1.25
2022-11-14T13:26:33.673Z,1.33
2022-11-14T13:31:16.627Z,1.08
2022-11-14T13:35:39.284Z,0.90
2022-11-14T13:40:15.290Z,1.25
2022-11-14T13:45:02.113Z,1.98
2022-11-14T13:49:49.960Z,1.70
2022-11-14T13:54:17.418Z,1.90
2022-11-14T13:59:01.746Z,1.70
2022-11-14T14:03:33.662Z,1.40
2022-11-14T14:08:33.493Z,1.55
2022-11-14T14:13:12.998Z,1.40
2022-11-14T14:17:59.853Z,1.65
2022-11-14T14:22:45.911Z,1.60
2022-11-14T14:27:25.316Z,1.50
2022-11-14T14:31:46.018Z,1.60
2022-11-14T14:36:17.746Z,1.50
2022-11-14T14:40:40.527Z,1.90
2022-11-14T14:45:03.999Z,2.67
2022-11-14T14:49:32.375Z,2.72
2022-11-14T14:53:54.134Z,2.90
2022-11-14T14:58:26.072Z,2.80
2022-11-14T15:02:47.323Z,2.63
2022-11-14T15:07:21.418Z,2.67
2022-11-14T15:11:45.637Z,2.50
2022-11-14T15:16:08.143Z,2.90
2022-11-14T15:20:30.683Z,2.90
2022-11-14T15:25:24.782Z,3.10
2022-11-14T15:29:48.014Z,4.97
2022-11-14T15:34:33.747Z,2.90
2022-11-14T15:39:20.380Z,2.97
2022-11-14T15:43:43.992Z,2.80
2022-11-14T15:48:14.397Z,4.13
2022-11-14T15:52:39.986Z,10.55
2022-11-14T15:57:06.916Z,6.45
2022-11-14T16:01:27.919Z,6.43
2022-11-14T16:05:48.875Z,7.22
2022-11-14T16:10:18.587Z,15.27
2022-11-14T16:14:39.604Z,7.13
2022-11-14T16:19:00.448Z,5.35
2022-11-14T16:23:21.255Z,6.80
2022-11-14T16:27:41.681Z,12.65
2022-11-14T16:32:03.690Z,9.02
2022-11-14T16:36:24.303Z,13.32
2022-11-14T16:40:45.031Z,8.40
2022-11-14T16:45:06.303Z,6.07
2022-11-14T16:49:27.434Z,5.40
2022-11-14T16:53:48.421Z,5.30
2022-11-14T16:58:09.161Z,5.13
2022-11-14T17:02:29.859Z,6.32
2022-11-14T17:06:51.575Z,3.60
2022-11-14T17:11:12.374Z,4.15
2022-11-14T17:15:33.340Z,5.18
2022-11-14T17:19:53.746Z,3.28
2022-11-14T17:24:14.355Z,3.30
2022-11-14T17:28:35.999Z,6.88
2022-11-14T17:32:56.802Z,8.18
2022-11-14T17:37:17.223Z,8.05
2022-11-14T17:41:38.792Z,9.55
2022-11-14T17:45:59.516Z,6.90
2022-11-14T17:50:19.897Z,6.40
2022-11-14T17:54:40.637Z,8.90
2022-11-14T17:59:01.654Z,6.68
2022-11-14T18:03:22.263Z,6.65
2022-11-14T18:07:43.116Z,7.45
2022-11-14T18:12:04.070Z,8.05
2022-11-14T18:16:26.475Z,12.38
2022-11-14T18:20:55.557Z,9.25
2022-11-14T18:25:16.456Z,8.32
2022-11-14T18:29:37.514Z,9.05
2022-11-14T18:33:58.562Z,7.18
2022-11-14T18:38:19.964Z,11.43
2022-11-14T18:42:40.323Z,12.23
2022-11-14T18:47:00.717Z,9.43
2022-11-14T18:51:28.728Z,11.45
2022-11-14T18:55:53.195Z,13.05
2022-11-14T19:00:14.463Z,16.08
2022-11-14T19:04:35.421Z,16.25
2022-11-14T19:08:57.598Z,18.27
2022-11-14T19:13:18.133Z,13.93
2022-11-14T19:17:38.998Z,18.63
2022-11-14T19:22:01.088Z,12.15
2022-11-14T19:26:24.217Z,14.17
2022-11-14T19:30:44.913Z,15.65
2022-11-14T19:35:06.273Z,19.25
2022-11-14T19:39:26.855Z,15.10
2022-11-14T19:43:48.497Z,12.50
2022-11-14T19:48:10.583Z,13.55
2022-11-14T19:52:46.984Z,15.32
2022-11-14T19:57:26.442Z,18.15
2022-11-14T20:02:22.238Z,15.40
2022-11-14T20:06:44.375Z,15.20
2022-11-14T20:16:40.315Z,11.52
2022-11-14T20:21:08.069Z,13.18
2022-11-14T20:25:28.623Z,10.10
2022-11-14T20:29:49.294Z,13.75
2022-11-14T20:34:11.465Z,12.25
2022-11-14T20:38:32.875Z,12.20
2022-11-14T20:42:53.226Z,13.82
2022-11-14T20:47:14.417Z,13.30
2022-11-14T20:51:37.101Z,15.10
2022-11-14T20:55:58.023Z,15.50
2022-11-14T21:00:19.441Z,12.73
2022-11-14T21:04:40.350Z,12.02
2022-11-14T21:09:01.801Z,12.57
2022-11-14T21:13:41.131Z,11.75
2022-11-14T21:18:01.652Z,11.55
2022-11-14T21:22:22.439Z,10.63
2022-11-14T21:26:43.266Z,10.20
2022-11-14T21:31:22.824Z,16.80
2022-11-14T21:35:49.954Z,16.27
2022-11-14T21:40:12.101Z,16.50
2022-11-14T21:44:33.657Z,18.02
2022-11-14T21:48:57.456Z,18.98
2022-11-14T21:53:18.931Z,18.75
2022-11-14T21:57:41.654Z,15.95
2022-11-14T22:02:25.852Z,17.15
2022-11-14T22:06:47.665Z,96.68
2022-11-14T22:11:09.141Z,27.05
2022-11-14T22:15:30.890Z,17.35
2022-11-14T22:19:52.077Z,17.20
2022-11-14T22:24:13.611Z,16.67
2022-11-14T22:28:34.800Z,16.45
2022-11-14T22:32:56.186Z,16.25
2022-11-14T22:37:17.483Z,14.98
2022-11-14T22:41:38.971Z,14.85
2022-11-14T22:46:00.771Z,13.52
2022-11-14T22:50:21.141Z,13.90
2022-11-14T22:54:42.296Z,15.00
2022-11-14T22:59:03.318Z,14.48
2022-11-14T23:03:24.744Z,15.70
2022-11-14T23:07:45.367Z,14.80
2022-11-14T23:12:06.354Z,16.23
2022-11-14T23:16:29.224Z,13.27
2022-11-14T23:20:49.973Z,12.98
2022-11-14T23:25:10.634Z,14.15
2022-11-14T23:29:31.129Z,13.57
2022-11-14T23:33:55.207Z,15.18
2022-11-14T23:38:15.439Z,13.50
2022-11-14T23:42:35.891Z,11.82
2022-11-14T23:46:56.662Z,12.57
2022-11-14T23:51:17.635Z,13.15
2022-11-14T23:55:38.691Z,12.27
2022-11-14T23:59:59.550Z,9.30
